sensor_id;sensor_type;location;lat;lon;timestamp;temperature;humidity
22235;DHT22;11286;45.596;5.284;2022-11-20T00:00:54;8.50;99.90
22235;DHT22;11286;45.596;5.284;2022-11-20T00:03:19;8.50;99.90
22235;DHT22;11286;45.596;5.284;2022-11-20T00:05:45;8.30;99.90
22235;DHT22;11286;45.596;5.284;2022-11-20T00:08:11;8.20;99.90
22235;DHT22;11286;45.596;5.284;2022-11-20T00:10:40;8.10;99.90
22235;DHT22;11286;45.596;5.284;2022-11-20T00:13:06;8.10;99.90
22235;DHT22;11286;45.596;5.284;2022-11-20T00:15:32;8.00;99.90
22235;DHT22;11286;45.596;5.284;2022-11-20T00:17:58;8.10;99.90
22235;DHT22;11286;45.596;5.284;2022-11-20T00:20:24;8.30;99.90
22235;DHT22;11286;45.596;5.284;2022-11-20T00:22:50;8.20;99.90
22235;DHT22;11286;45.596;5.284;2022-11-20T00:25:16;8.20;99.90
22235;DHT22;11286;45.596;5.284;2022-11-20T00:27:42;8.20;99.90
22235;DHT22;11286;45.596;5.284;2022-11-20T00:30:08;8.20;99.90
22235;DHT22;11286;45.596;5.284;2022-11-20T00:32:34;8.30;99.90
22235;DHT22;11286;45.596;5.284;2022-11-20T00:34:59;8.20;99.90
22235;DHT22;11286;45.596;5.284;2022-11-20T00:37:25;8.70;99.90
22235;DHT22;11286;45.596;5.284;2022-11-20T00:39:51;8.20;99.90
22235;DHT22;11286;45.596;5.284;2022-11-20T00:42:17;8.50;99.90
22235;DHT22;11286;45.596;5.284;2022-11-20T00:44:42;8.20;99.90
22235;DHT22;11286;45.596;5.284;2022-11-20T00:47:08;8.20;99.90
22235;DHT22;11286;45.596;5.284;2022-11-20T00:49:33;8.00;99.90
22235;DHT22;11286;45.596;5.284;2022-11-20T00:51:59;8.00;99.90
22235;DHT22;11286;45.596;5.284;2022-11-20T00:54:25;8.10;99.90
22235;DHT22;11286;45.596;5.284;2022-11-20T00:56:53;8.00;99.90
22235;DHT22;11286;45.596;5.284;2022-11-20T00:59:18;8.00;99.90
22235;DHT22;11286;45.596;5.284;2022-11-20T01:01:44;8.00;99.90
22235;DHT22;11286;45.596;5.284;2022-11-20T01:04:10;8.20;99.90
22235;DHT22;11286;45.596;5.284;2022-11-20T01:06:37;8.00;99.90
22235;DHT22;11286;45.596;5.284;2022-11-20T01:09:08;8.00;99.90
22235;DHT22;11286;45.596;5.284;2022-11-20T01:11:38;7.90;99.90
22235;DHT22;11286;45.596;5.284;2022-11-20T01:14:06;7.80;99.90
22235;DHT22;11286;45.596;5.284;2022-11-20T01:16:37;7.50;99.90
22235;DHT22;11286;45.596;5.284;2022-11-20T01:19:06;7.50;99.90
22235;DHT22;11286;45.596;5.284;2022-11-20T01:21:35;7.60;99.90
22235;DHT22;11286;45.596;5.284;2022-11-20T01:24:03;8.20;99.90
22235;DHT22;11286;45.596;5.284;2022-11-20T01:26:31;7.60;99.90
22235;DHT22;11286;45.596;5.284;2022-11-20T01:28:58;7.60;99.90
22235;DHT22;11286;45.596;5.284;2022-11-20T01:31:26;7.70;99.90
22235;DHT22;11286;45.596;5.284;2022-11-20T01:33:54;7.70;99.90
22235;DHT22;11286;45.596;5.284;2022-11-20T01:36:21;8.20;99.90
22235;DHT22;11286;45.596;5.284;2022-11-20T01:38:47;8.00;99.90
22235;DHT22;11286;45.596;5.284;2022-11-20T01:41:14;8.10;99.90
22235;DHT22;11286;45.596;5.284;2022-11-20T01:44:01;8.20;99.90
22235;DHT22;11286;45.596;5.284;2022-11-20T01:46:27;8.30;99.90
22235;DHT22;11286;45.596;5.284;2022-11-20T01:49:00;8.30;99.90
22235;DHT22;11286;45.596;5.284;2022-11-20T01:51:35;8.20;99.90
22235;DHT22;11286;45.596;5.284;2022-11-20T01:54:06;8.20;99.90
22235;DHT22;11286;45.596;5.284;2022-11-20T01:56:38;8.00;99.90
22235;DHT22;11286;45.596;5.284;2022-11-20T01:59:05;8.00;99.90
22235;DHT22;11286;45.596;5.284;2022-11-20T02:01:33;8.00;99.90
22235;DHT22;11286;45.596;5.284;2022-11-20T02:03:59;8.10;99.90
22235;DHT22;11286;45.596;5.284;2022-11-20T02:06:30;8.00;99.90
22235;DHT22;11286;45.596;5.284;2022-11-20T02:08:57;7.90;99.90
22235;DHT22;11286;45.596;5.284;2022-11-20T02:11:23;7.90;99.90
22235;DHT22;11286;45.596;5.284;2022-11-20T02:13:49;7.90;99.90
22235;DHT22;11286;45.596;5.284;2022-11-20T02:18:46;7.90;99.90
22235;DHT22;11286;45.596;5.284;2022-11-20T02:21:40;8.20;99.90
22235;DHT22;11286;45.596;5.284;2022-11-20T02:24:14;7.70;99.90
22235;DHT22;11286;45.596;5.284;2022-11-20T02:29:08;7.80;99.90
22235;DHT22;11286;45.596;5.284;2022-11-20T02:31:37;7.80;99.90
22235;DHT22;11286;45.596;5.284;2022-11-20T02:34:03;7.90;99.90
22235;DHT22;11286;45.596;5.284;2022-11-20T02:36:31;8.50;99.90
22235;DHT22;11286;45.596;5.284;2022-11-20T02:38:57;8.00;99.90
22235;DHT22;11286;45.596;5.284;2022-11-20T02:41:37;8.00;99.90
22235;DHT22;11286;45.596;5.284;2022-11-20T02:44:04;8.00;99.90
22235;DHT22;11286;45.596;5.284;2022-11-20T02:46:30;8.00;99.90
22235;DHT22;11286;45.596;5.284;2022-11-20T02:48:56;8.30;99.90
22235;DHT22;11286;45.596;5.284;2022-11-20T02:51:22;8.40;99.90
22235;DHT22;11286;45.596;5.284;2022-11-20T02:53:48;8.00;99.90
22235;DHT22;11286;45.596;5.284;2022-11-20T02:56:14;8.00;99.90
22235;DHT22;11286;45.596;5.284;2022-11-20T02:58:39;8.00;99.90
22235;DHT22;11286;45.596;5.284;2022-11-20T03:01:05;8.00;99.90
22235;DHT22;11286;45.596;5.284;2022-11-20T03:03:30;8.00;99.90
22235;DHT22;11286;45.596;5.284;2022-11-20T03:05:59;8.00;99.90
22235;DHT22;11286;45.596;5.284;2022-11-20T03:08:24;8.00;99.90
22235;DHT22;11286;45.596;5.284;2022-11-20T03:10:51;8.00;99.90
22235;DHT22;11286;45.596;5.284;2022-11-20T03:13:17;8.20;99.90
22235;DHT22;11286;45.596;5.284;2022-11-20T03:15:42;8.00;99.90
22235;DHT22;11286;45.596;5.284;2022-11-20T03:18:08;7.90;99.90
22235;DHT22;11286;45.596;5.284;2022-11-20T03:20:34;8.00;99.90
22235;DHT22;11286;45.596;5.284;2022-11-20T03:23:00;7.90;99.90
22235;DHT22;11286;45.596;5.284;2022-11-20T03:25:26;7.80;99.90
22235;DHT22;11286;45.596;5.284;2022-11-20T03:27:51;7.80;99.90
22235;DHT22;11286;45.596;5.284;2022-11-20T03:30:17;7.80;99.90
22235;DHT22;11286;45.596;5.284;2022-11-20T03:32:43;7.70;99.90
22235;DHT22;11286;45.596;5.284;2022-11-20T03:35:09;7.60;99.90
22235;DHT22;11286;45.596;5.284;2022-11-20T03:37:35;7.70;99.90
22235;DHT22;11286;45.596;5.284;2022-11-20T03:40:00;7.70;99.90
22235;DHT22;11286;45.596;5.284;2022-11-20T03:42:26;7.70;99.90
22235;DHT22;11286;45.596;5.284;2022-11-20T03:45:10;7.70;99.90
22235;DHT22;11286;45.596;5.284;2022-11-20T03:47:36;7.70;99.90
22235;DHT22;11286;45.596;5.284;2022-11-20T03:50:02;7.50;99.90
22235;DHT22;11286;45.596;5.284;2022-11-20T03:52:27;7.90;99.90
22235;DHT22;11286;45.596;5.284;2022-11-20T03:54:53;7.50;99.90
22235;DHT22;11286;45.596;5.284;2022-11-20T03:57:19;7.60;99.90
22235;DHT22;11286;45.596;5.284;2022-11-20T03:59:44;7.60;99.90
22235;DHT22;11286;45.596;5.284;2022-11-20T04:02:10;7.60;99.90
22235;DHT22;11286;45.596;5.284;2022-11-20T04:04:35;7.60;99.90
22235;DHT22;11286;45.596;5.284;2022-11-20T04:07:02;7.50;99.90
22235;DHT22;11286;45.596;5.284;2022-11-20T04:09:27;7.50;99.90
22235;DHT22;11286;45.596;5.284;2022-11-20T04:11:53;7.90;99.90
22235;DHT22;11286;45.596;5.284;2022-11-20T04:14:19;7.50;99.90
22235;DHT22;11286;45.596;5.284;2022-11-20T04:16:44;7.50;99.90
22235;DHT22;11286;45.596;5.284;2022-11-20T04:19:12;7.60;99.90
22235;DHT22;11286;45.596;5.284;2022-11-20T04:21:38;7.50;99.90
22235;DHT22;11286;45.596;5.284;2022-11-20T04:24:04;7.50;99.90
22235;DHT22;11286;45.596;5.284;2022-11-20T04:26:30;7.60;99.90
22235;DHT22;11286;45.596;5.284;2022-11-20T04:28:57;7.90;99.90
22235;DHT22;11286;45.596;5.284;2022-11-20T04:31:25;7.60;99.90
22235;DHT22;11286;45.596;5.284;2022-11-20T04:33:51;7.60;99.90
22235;DHT22;11286;45.596;5.284;2022-11-20T04:36:23;7.60;99.90
22235;DHT22;11286;45.596;5.284;2022-11-20T04:38:57;7.60;99.90
22235;DHT22;11286;45.596;5.284;2022-11-20T04:41:29;7.50;99.90
22235;DHT22;11286;45.596;5.284;2022-11-20T04:43:57;7.60;99.90
22235;DHT22;11286;45.596;5.284;2022-11-20T04:46:38;7.50;99.90
22235;DHT22;11286;45.596;5.284;2022-11-20T04:49:05;7.90;99.90
22235;DHT22;11286;45.596;5.284;2022-11-20T04:51:32;7.40;99.90
22235;DHT22;11286;45.596;5.284;2022-11-20T04:53:57;7.50;99.90
22235;DHT22;11286;45.596;5.284;2022-11-20T04:56:23;7.40;99.90
22235;DHT22;11286;45.596;5.284;2022-11-20T04:58:49;7.40;99.90
22235;DHT22;11286;45.596;5.284;2022-11-20T05:01:18;7.50;99.90
22235;DHT22;11286;45.596;5.284;2022-11-20T05:03:45;7.40;99.90
22235;DHT22;11286;45.596;5.284;2022-11-20T05:06:13;7.50;99.90
22235;DHT22;11286;45.596;5.284;2022-11-20T05:08:39;7.40;99.90
22235;DHT22;11286;45.596;5.284;2022-11-20T05:11:13;7.40;99.90
22235;DHT22;11286;45.596;5.284;2022-11-20T05:13:39;7.40;99.90
22235;DHT22;11286;45.596;5.284;2022-11-20T05:16:07;7.40;99.90
22235;DHT22;11286;45.596;5.284;2022-11-20T05:18:34;7.30;99.90
22235;DHT22;11286;45.596;5.284;2022-11-20T05:21:00;7.30;99.90
22235;DHT22;11286;45.596;5.284;2022-11-20T05:23:27;7.20;99.90
22235;DHT22;11286;45.596;5.284;2022-11-20T05:25:54;7.20;99.90
22235;DHT22;11286;45.596;5.284;2022-11-20T05:28:20;7.50;99.90
22235;DHT22;11286;45.596;5.284;2022-11-20T05:30:46;7.40;99.90
22235;DHT22;11286;45.596;5.284;2022-11-20T05:33:11;7.20;99.90
22235;DHT22;11286;45.596;5.284;2022-11-20T05:35:37;7.20;99.90
22235;DHT22;11286;45.596;5.284;2022-11-20T05:38:03;7.10;99.90
22235;DHT22;11286;45.596;5.284;2022-11-20T05:40:28;7.20;99.90
22235;DHT22;11286;45.596;5.284;2022-11-20T05:42:54;7.10;99.90
22235;DHT22;11286;45.596;5.284;2022-11-20T05:45:20;7.50;99.90
22235;DHT22;11286;45.596;5.284;2022-11-20T05:47:45;7.10;99.90
22235;DHT22;11286;45.596;5.284;2022-11-20T05:50:11;7.20;99.90
22235;DHT22;11286;45.596;5.284;2022-11-20T05:52:37;7.20;99.90
22235;DHT22;11286;45.596;5.284;2022-11-20T05:55:02;7.20;99.90
22235;DHT22;11286;45.596;5.284;2022-11-20T05:57:28;7.30;99.90
22235;DHT22;11286;45.596;5.284;2022-11-20T05:59:54;7.40;99.90
22235;DHT22;11286;45.596;5.284;2022-11-20T06:02:19;7.40;99.90
22235;DHT22;11286;45.596;5.284;2022-11-20T06:04:45;7.80;99.90
22235;DHT22;11286;45.596;5.284;2022-11-20T06:07:10;7.40;99.90
22235;DHT22;11286;45.596;5.284;2022-11-20T06:09:36;8.00;99.90
22235;DHT22;11286;45.596;5.284;2022-11-20T06:12:01;7.50;99.90
22235;DHT22;11286;45.596;5.284;2022-11-20T06:14:27;7.50;99.90
22235;DHT22;11286;45.596;5.284;2022-11-20T06:16:53;7.50;99.90
22235;DHT22;11286;45.596;5.284;2022-11-20T06:19:18;7.40;99.90
22235;DHT22;11286;45.596;5.284;2022-11-20T06:21:44;7.40;99.90
22235;DHT22;11286;45.596;5.284;2022-11-20T06:24:10;7.40;99.90
22235;DHT22;11286;45.596;5.284;2022-11-20T06:26:36;7.40;99.90
22235;DHT22;11286;45.596;5.284;2022-11-20T06:29:01;7.40;99.90
22235;DHT22;11286;45.596;5.284;2022-11-20T06:31:28;7.90;99.90
22235;DHT22;11286;45.596;5.284;2022-11-20T06:33:54;7.70;99.90
22235;DHT22;11286;45.596;5.284;2022-11-20T06:36:22;7.40;99.90
22235;DHT22;11286;45.596;5.284;2022-11-20T06:38:48;7.40;99.90
22235;DHT22;11286;45.596;5.284;2022-11-20T06:41:17;7.40;99.90
22235;DHT22;11286;45.596;5.284;2022-11-20T06:43:43;7.40;99.90
22235;DHT22;11286;45.596;5.284;2022-11-20T06:46:13;7.40;99.90
22235;DHT22;11286;45.596;5.284;2022-11-20T06:48:39;7.40;99.90
22235;DHT22;11286;45.596;5.284;2022-11-20T06:51:06;7.40;99.90
22235;DHT22;11286;45.596;5.284;2022-11-20T06:53:32;7.40;99.90
22235;DHT22;11286;45.596;5.284;2022-11-20T06:55:58;7.50;99.90
22235;DHT22;11286;45.596;5.284;2022-11-20T06:58:27;7.50;99.90
22235;DHT22;11286;45.596;5.284;2022-11-20T07:00:54;7.50;99.90
22235;DHT22;11286;45.596;5.284;2022-11-20T07:03:22;7.40;99.90
22235;DHT22;11286;45.596;5.284;2022-11-20T07:05:48;7.80;99.90
22235;DHT22;11286;45.596;5.284;2022-11-20T07:08:14;7.50;99.90
22235;DHT22;11286;45.596;5.284;2022-11-20T07:10:39;7.70;99.90
22235;DHT22;11286;45.596;5.284;2022-11-20T07:13:05;7.50;99.90
22235;DHT22;11286;45.596;5.284;2022-11-20T07:15:32;7.60;99.90
22235;DHT22;11286;45.596;5.284;2022-11-20T07:18:01;7.50;99.90
22235;DHT22;11286;45.596;5.284;2022-11-20T07:20:27;7.60;99.90
22235;DHT22;11286;45.596;5.284;2022-11-20T07:22:56;7.60;99.90
22235;DHT22;11286;45.596;5.284;2022-11-20T07:25:23;7.50;99.90
22235;DHT22;11286;45.596;5.284;2022-11-20T07:27:48;7.60;99.90
22235;DHT22;11286;45.596;5.284;2022-11-20T07:30:15;7.40;99.90
22235;DHT22;11286;45.596;5.284;2022-11-20T07:32:41;7.40;99.90
22235;DHT22;11286;45.596;5.284;2022-11-20T07:35:06;7.30;99.90
22235;DHT22;11286;45.596;5.284;2022-11-20T07:37:35;7.30;99.90
22235;DHT22;11286;45.596;5.284;2022-11-20T07:40:01;7.40;99.90
22235;DHT22;11286;45.596;5.284;2022-11-20T07:42:27;7.50;99.90
22235;DHT22;11286;45.596;5.284;2022-11-20T07:44:52;7.50;99.90
22235;DHT22;11286;45.596;5.284;2022-11-20T07:47:18;7.50;99.90
22235;DHT22;11286;45.596;5.284;2022-11-20T07:49:44;7.50;99.90
22235;DHT22;11286;45.596;5.284;2022-11-20T07:52:09;7.40;99.90
22235;DHT22;11286;45.596;5.284;2022-11-20T07:54:35;7.40;99.90
22235;DHT22;11286;45.596;5.284;2022-11-20T07:57:00;7.80;99.90
22235;DHT22;11286;45.596;5.284;2022-11-20T07:59:26;7.60;99.90
22235;DHT22;11286;45.596;5.284;2022-11-20T08:01:52;8.00;99.90
22235;DHT22;11286;45.596;5.284;2022-11-20T08:04:17;7.60;99.90
22235;DHT22;11286;45.596;5.284;2022-11-20T08:06:43;7.70;99.90
22235;DHT22;11286;45.596;5.284;2022-11-20T08:09:08;7.70;99.90
22235;DHT22;11286;45.596;5.284;2022-11-20T08:11:35;7.80;99.90
22235;DHT22;11286;45.596;5.284;2022-11-20T08:14:19;8.40;99.90
22235;DHT22;11286;45.596;5.284;2022-11-20T08:16:46;9.00;99.90
22235;DHT22;11286;45.596;5.284;2022-11-20T08:19:14;9.80;99.90
22235;DHT22;11286;45.596;5.284;2022-11-20T08:21:40;9.90;99.90
22235;DHT22;11286;45.596;5.284;2022-11-20T08:24:06;9.90;99.90
22235;DHT22;11286;45.596;5.284;2022-11-20T08:26:32;10.30;99.90
22235;DHT22;11286;45.596;5.284;2022-11-20T08:28:58;10.20;99.90
22235;DHT22;11286;45.596;5.284;2022-11-20T08:31:25;9.80;99.90
22235;DHT22;11286;45.596;5.284;2022-11-20T08:33:52;10.20;99.90
22235;DHT22;11286;45.596;5.284;2022-11-20T08:36:18;12.40;99.90
22235;DHT22;11286;45.596;5.284;2022-11-20T08:38:51;13.70;99.90
22235;DHT22;11286;45.596;5.284;2022-11-20T08:41:17;17.10;99.90
22235;DHT22;11286;45.596;5.284;2022-11-20T08:43:50;21.00;99.90
22235;DHT22;11286;45.596;5.284;2022-11-20T08:46:16;22.30;99.90
22235;DHT22;11286;45.596;5.284;2022-11-20T08:48:42;23.50;99.90
22235;DHT22;11286;45.596;5.284;2022-11-20T08:51:07;24.10;99.90
22235;DHT22;11286;45.596;5.284;2022-11-20T08:53:33;24.30;99.90
22235;DHT22;11286;45.596;5.284;2022-11-20T08:55:59;24.80;99.90
22235;DHT22;11286;45.596;5.284;2022-11-20T08:58:25;25.40;99.90
22235;DHT22;11286;45.596;5.284;2022-11-20T09:00:50;25.10;99.90
22235;DHT22;11286;45.596;5.284;2022-11-20T09:03:16;25.50;99.90
22235;DHT22;11286;45.596;5.284;2022-11-20T09:05:42;24.90;99.90
22235;DHT22;11286;45.596;5.284;2022-11-20T09:08:08;25.50;99.90
22235;DHT22;11286;45.596;5.284;2022-11-20T09:10:34;25.20;99.90
22235;DHT22;11286;45.596;5.284;2022-11-20T09:13:00;26.90;99.90
22235;DHT22;11286;45.596;5.284;2022-11-20T09:15:27;27.00;99.90
22235;DHT22;11286;45.596;5.284;2022-11-20T09:18:01;27.30;99.90
22235;DHT22;11286;45.596;5.284;2022-11-20T09:20:29;23.30;99.90
22235;DHT22;11286;45.596;5.284;2022-11-20T09:22:55;20.70;99.90
22235;DHT22;11286;45.596;5.284;2022-11-20T09:25:21;18.30;99.90
22235;DHT22;11286;45.596;5.284;2022-11-20T09:27:47;16.70;99.90
22235;DHT22;11286;45.596;5.284;2022-11-20T09:30:14;15.10;99.90
22235;DHT22;11286;45.596;5.284;2022-11-20T09:32:40;14.20;99.90
22235;DHT22;11286;45.596;5.284;2022-11-20T09:35:06;14.70;99.90
22235;DHT22;11286;45.596;5.284;2022-11-20T09:37:32;16.90;99.90
22235;DHT22;11286;45.596;5.284;2022-11-20T09:39:57;17.10;99.90
22235;DHT22;11286;45.596;5.284;2022-11-20T09:53:51;12.70;99.90
22235;DHT22;11286;45.596;5.284;2022-11-20T09:56:20;12.40;99.90
22235;DHT22;11286;45.596;5.284;2022-11-20T09:58:51;12.50;99.90
22235;DHT22;11286;45.596;5.284;2022-11-20T10:01:19;16.00;99.90
22235;DHT22;11286;45.596;5.284;2022-11-20T10:04:03;16.80;99.90
22235;DHT22;11286;45.596;5.284;2022-11-20T10:06:40;17.00;99.90
22235;DHT22;11286;45.596;5.284;2022-11-20T10:09:18;16.80;99.90
22235;DHT22;11286;45.596;5.284;2022-11-20T10:12:06;16.30;99.90
22235;DHT22;11286;45.596;5.284;2022-11-20T10:14:58;14.20;99.90
22235;DHT22;11286;45.596;5.284;2022-11-20T10:26:03;12.70;99.90
22235;DHT22;11286;45.596;5.284;2022-11-20T10:31:33;15.40;99.90
22235;DHT22;11286;45.596;5.284;2022-11-20T10:34:31;20.30;99.90
22235;DHT22;11286;45.596;5.284;2022-11-20T10:37:02;16.00;99.90
22235;DHT22;11286;45.596;5.284;2022-11-20T10:39:33;16.00;99.90
22235;DHT22;11286;45.596;5.284;2022-11-20T10:42:00;23.90;99.90
22235;DHT22;11286;45.596;5.284;2022-11-20T10:44:28;24.70;99.90
22235;DHT22;11286;45.596;5.284;2022-11-20T10:47:17;23.10;99.90
22235;DHT22;11286;45.596;5.284;2022-11-20T10:49:46;22.50;99.90
22235;DHT22;11286;45.596;5.284;2022-11-20T10:55:09;24.30;99.90
22235;DHT22;11286;45.596;5.284;2022-11-20T11:00:34;27.30;99.90
22235;DHT22;11286;45.596;5.284;2022-11-20T11:03:00;29.20;99.90
22235;DHT22;11286;45.596;5.284;2022-11-20T11:05:50;29.30;99.90
22235;DHT22;11286;45.596;5.284;2022-11-20T11:08:18;21.30;99.90
22235;DHT22;11286;45.596;5.284;2022-11-20T11:10:54;18.30;99.90
22235;DHT22;11286;45.596;5.284;2022-11-20T11:13:25;16.20;99.90
22235;DHT22;11286;45.596;5.284;2022-11-20T11:15:51;22.80;99.90
22235;DHT22;11286;45.596;5.284;2022-11-20T11:20:51;28.10;99.90
22235;DHT22;11286;45.596;5.284;2022-11-20T11:25:59;21.40;99.90
22235;DHT22;11286;45.596;5.284;2022-11-20T11:28:26;24.20;99.90
22235;DHT22;11286;45.596;5.284;2022-11-20T11:30:53;23.20;99.90
22235;DHT22;11286;45.596;5.284;2022-11-20T11:33:37;26.30;99.90
22235;DHT22;11286;45.596;5.284;2022-11-20T11:36:17;28.70;99.90
22235;DHT22;11286;45.596;5.284;2022-11-20T11:38:44;28.90;99.90
22235;DHT22;11286;45.596;5.284;2022-11-20T11:41:16;31.10;99.90
22235;DHT22;11286;45.596;5.284;2022-11-20T11:43:55;31.90;99.90
22235;DHT22;11286;45.596;5.284;2022-11-20T11:46:49;32.00;99.90
22235;DHT22;11286;45.596;5.284;2022-11-20T11:49:19;31.10;99.90
22235;DHT22;11286;45.596;5.284;2022-11-20T11:52:13;31.20;99.90
22235;DHT22;11286;45.596;5.284;2022-11-20T11:54:48;31.30;99.90
22235;DHT22;11286;45.596;5.284;2022-11-20T11:57:33;31.10;99.90
22235;DHT22;11286;45.596;5.284;2022-11-20T12:00:10;31.30;99.90
22235;DHT22;11286;45.596;5.284;2022-11-20T12:05:24;31.70;99.90
22235;DHT22;11286;45.596;5.284;2022-11-20T12:13:20;28.50;99.90
22235;DHT22;11286;45.596;5.284;2022-11-20T12:15:47;31.10;99.90
22235;DHT22;11286;45.596;5.284;2022-11-20T12:18:18;31.10;99.90
22235;DHT22;11286;45.596;5.284;2022-11-20T12:34:40;18.70;99.90
22235;DHT22;11286;45.596;5.284;2022-11-20T12:40:00;24.20;99.90
22235;DHT22;11286;45.596;5.284;2022-11-20T12:54:21;22.50;99.90
22235;DHT22;11286;45.596;5.284;2022-11-20T12:57:08;19.90;99.90
22235;DHT22;11286;45.596;5.284;2022-11-20T13:02:37;18.50;99.90
22235;DHT22;11286;45.596;5.284;2022-11-20T13:05:27;19.00;99.90
22235;DHT22;11286;45.596;5.284;2022-11-20T13:07:56;18.10;99.90
22235;DHT22;11286;45.596;5.284;2022-11-20T13:15:59;20.70;99.90
22235;DHT22;11286;45.596;5.284;2022-11-20T13:18:29;23.10;99.90
22235;DHT22;11286;45.596;5.284;2022-11-20T13:20:58;19.50;99.90
22235;DHT22;11286;45.596;5.284;2022-11-20T13:23:26;18.10;99.90
22235;DHT22;11286;45.596;5.284;2022-11-20T13:26:04;19.20;99.90
22235;DHT22;11286;45.596;5.284;2022-11-20T13:28:31;22.30;99.90
22235;DHT22;11286;45.596;5.284;2022-11-20T13:30:57;24.00;99.90
22235;DHT22;11286;45.596;5.284;2022-11-20T13:36:01;25.70;99.90
22235;DHT22;11286;45.596;5.284;2022-11-20T13:38:28;23.90;99.90
22235;DHT22;11286;45.596;5.284;2022-11-20T13:40:56;23.90;99.90
22235;DHT22;11286;45.596;5.284;2022-11-20T13:43:48;23.60;99.90
22235;DHT22;11286;45.596;5.284;2022-11-20T13:46:14;24.30;99.90
22235;DHT22;11286;45.596;5.284;2022-11-20T13:48:44;24.10;99.90
22235;DHT22;11286;45.596;5.284;2022-11-20T13:54:07;21.60;99.90
22235;DHT22;11286;45.596;5.284;2022-11-20T14:01:45;22.30;99.90
22235;DHT22;11286;45.596;5.284;2022-11-20T14:04:17;22.00;99.90
22235;DHT22;11286;45.596;5.284;2022-11-20T14:06:46;22.80;99.90
22235;DHT22;11286;45.596;5.284;2022-11-20T14:09:23;22.80;99.90
22235;DHT22;11286;45.596;5.284;2022-11-20T14:11:49;23.40;99.90
22235;DHT22;11286;45.596;5.284;2022-11-20T14:14:17;23.70;99.90
22235;DHT22;11286;45.596;5.284;2022-11-20T14:16:44;23.60;99.90
22235;DHT22;11286;45.596;5.284;2022-11-20T14:21:49;21.60;99.90
22235;DHT22;11286;45.596;5.284;2022-11-20T14:24:19;21.20;99.90
22235;DHT22;11286;45.596;5.284;2022-11-20T14:26:46;21.00;99.90
22235;DHT22;11286;45.596;5.284;2022-11-20T14:29:35;20.20;99.90
22235;DHT22;11286;45.596;5.284;2022-11-20T14:32:03;20.50;99.90
22235;DHT22;11286;45.596;5.284;2022-11-20T14:34:31;21.10;99.90
22235;DHT22;11286;45.596;5.284;2022-11-20T14:37:02;20.10;99.90
22235;DHT22;11286;45.596;5.284;2022-11-20T14:39:39;19.20;99.90
22235;DHT22;11286;45.596;5.284;2022-11-20T14:42:32;20.60;99.90
22235;DHT22;11286;45.596;5.284;2022-11-20T14:44:59;20.20;99.90
22235;DHT22;11286;45.596;5.284;2022-11-20T14:47:28;20.40;99.90
22235;DHT22;11286;45.596;5.284;2022-11-20T14:49:55;19.90;99.90
22235;DHT22;11286;45.596;5.284;2022-11-20T14:52:27;17.40;99.90
22235;DHT22;11286;45.596;5.284;2022-11-20T14:54:55;15.30;99.90
22235;DHT22;11286;45.596;5.284;2022-11-20T15:02:46;15.00;99.90
22235;DHT22;11286;45.596;5.284;2022-11-20T15:05:12;14.80;99.90
22235;DHT22;11286;45.596;5.284;2022-11-20T15:07:41;15.10;99.90
22235;DHT22;11286;45.596;5.284;2022-11-20T15:10:13;14.90;99.90
22235;DHT22;11286;45.596;5.284;2022-11-20T15:12:46;14.80;99.90
22235;DHT22;11286;45.596;5.284;2022-11-20T15:15:17;14.70;99.90
22235;DHT22;11286;45.596;5.284;2022-11-20T15:17:43;14.80;99.90
22235;DHT22;11286;45.596;5.284;2022-11-20T15:20:13;14.70;99.90
22235;DHT22;11286;45.596;5.284;2022-11-20T15:22:38;14.70;99.90
22235;DHT22;11286;45.596;5.284;2022-11-20T15:25:15;14.60;99.90
22235;DHT22;11286;45.596;5.284;2022-11-20T15:27:42;14.70;99.90
22235;DHT22;11286;45.596;5.284;2022-11-20T15:30:16;14.70;99.90
22235;DHT22;11286;45.596;5.284;2022-11-20T15:32:43;14.70;99.90
22235;DHT22;11286;45.596;5.284;2022-11-20T15:35:10;14.90;99.90
22235;DHT22;11286;45.596;5.284;2022-11-20T15:37:36;14.50;99.90
22235;DHT22;11286;45.596;5.284;2022-11-20T15:40:03;14.50;99.90
22235;DHT22;11286;45.596;5.284;2022-11-20T15:42:29;14.30;99.90
22235;DHT22;11286;45.596;5.284;2022-11-20T15:44:55;14.30;99.90
22235;DHT22;11286;45.596;5.284;2022-11-20T15:47:25;14.20;99.90
22235;DHT22;11286;45.596;5.284;2022-11-20T15:49:52;14.10;99.90
22235;DHT22;11286;45.596;5.284;2022-11-20T15:52:18;14.00;99.90
22235;DHT22;11286;45.596;5.284;2022-11-20T15:54:43;13.90;99.90
22235;DHT22;11286;45.596;5.284;2022-11-20T15:57:09;13.90;99.90
22235;DHT22;11286;45.596;5.284;2022-11-20T15:59:35;13.80;99.90
22235;DHT22;11286;45.596;5.284;2022-11-20T16:02:10;13.80;99.90
22235;DHT22;11286;45.596;5.284;2022-11-20T16:04:36;13.70;99.90
22235;DHT22;11286;45.596;5.284;2022-11-20T16:07:01;13.60;99.90
22235;DHT22;11286;45.596;5.284;2022-11-20T16:09:27;13.40;99.90
22235;DHT22;11286;45.596;5.284;2022-11-20T16:11:52;13.40;99.90
22235;DHT22;11286;45.596;5.284;2022-11-20T16:14:19;13.10;99.90
22235;DHT22;11286;45.596;5.284;2022-11-20T16:17:03;13.10;99.90
22235;DHT22;11286;45.596;5.284;2022-11-20T16:19:29;13.10;99.90
22235;DHT22;11286;45.596;5.284;2022-11-20T16:21:54;13.20;99.90
22235;DHT22;11286;45.596;5.284;2022-11-20T16:24:20;13.10;99.90
22235;DHT22;11286;45.596;5.284;2022-11-20T16:26:45;13.00;99.90
22235;DHT22;11286;45.596;5.284;2022-11-20T16:29:11;12.80;99.90
22235;DHT22;11286;45.596;5.284;2022-11-20T16:31:37;13.00;99.90
22235;DHT22;11286;45.596;5.284;2022-11-20T16:34:05;12.90;99.90
22235;DHT22;11286;45.596;5.284;2022-11-20T16:36:31;12.80;99.90
22235;DHT22;11286;45.596;5.284;2022-11-20T16:39:00;12.80;99.90
22235;DHT22;11286;45.596;5.284;2022-11-20T16:41:27;12.70;99.90
22235;DHT22;11286;45.596;5.284;2022-11-20T16:43:55;12.80;99.90
22235;DHT22;11286;45.596;5.284;2022-11-20T16:46:25;12.60;99.90
22235;DHT22;11286;45.596;5.284;2022-11-20T16:48:58;12.60;99.90
22235;DHT22;11286;45.596;5.284;2022-11-20T16:51:25;12.50;99.90
22235;DHT22;11286;45.596;5.284;2022-11-20T16:53:51;12.50;99.90
22235;DHT22;11286;45.596;5.284;2022-11-20T16:56:19;12.50;99.90
22235;DHT22;11286;45.596;5.284;2022-11-20T16:58:46;12.50;99.90
22235;DHT22;11286;45.596;5.284;2022-11-20T17:01:14;12.40;99.90
22235;DHT22;11286;45.596;5.284;2022-11-20T17:03:42;12.20;99.90
22235;DHT22;11286;45.596;5.284;2022-11-20T17:06:19;12.20;99.90
22235;DHT22;11286;45.596;5.284;2022-11-20T17:08:45;12.20;99.90
22235;DHT22;11286;45.596;5.284;2022-11-20T17:11:16;12.10;99.90
22235;DHT22;11286;45.596;5.284;2022-11-20T17:13:42;12.00;99.90
22235;DHT22;11286;45.596;5.284;2022-11-20T17:16:16;12.20;99.90
22235;DHT22;11286;45.596;5.284;2022-11-20T17:18:42;12.20;99.90
22235;DHT22;11286;45.596;5.284;2022-11-20T17:21:09;12.10;99.90
22235;DHT22;11286;45.596;5.284;2022-11-20T17:23:37;12.30;99.90
22235;DHT22;11286;45.596;5.284;2022-11-20T17:26:06;12.00;99.90
22235;DHT22;11286;45.596;5.284;2022-11-20T17:28:33;12.00;99.90
22235;DHT22;11286;45.596;5.284;2022-11-20T17:31:04;12.10;99.90